Time,TemperatureF,DewpointF,PressureIn,WindDirection,WindDirectionDegrees,WindSpeedMPH,WindSpeedGustMPH,Humidity,HourlyPrecipIn,Conditions,Clouds,dailyrainin,SoftwareType,DateUTC
2013-02-22 00:05:00,9.1,8.0,29.88,SSW,202,0.0,-999.0,95,-99.99,,,0.00,Acu-Link.com,2013-02-22 05:05:00,
2013-02-22 00:20:00,9.0,7.6,29.87,North,0,0.0,-999.0,94,-99.99,,,0.00,Acu-Link.com,2013-02-22 05:20:00,
2013-02-22 00:36:00,9.5,8.4,29.87,NNW,337,0.0,-999.0,95,-99.99,,,0.00,Acu-Link.com,2013-02-22 05:36:00,
2013-02-22 00:51:00,11.1,10.4,29.87,NW,315,0.0,-999.0,97,-99.99,,,0.00,Acu-Link.com,2013-02-22 05:51:00,
2013-02-22 01:06:00,12.9,12.4,29.88,East,90,0.0,-999.0,98,-99.99,,,0.00,Acu-Link.com,2013-02-22 06:06:00,
2013-02-22 01:21:00,13.6,13.1,29.89,SSE,157,2.7,-999.0,98,-99.99,,,0.00,Acu-Link.com,2013-02-22 06:21:00,
2013-02-22 01:36:00,14.2,13.7,29.89,South,180,0.0,-999.0,98,-99.99,,,0.00,Acu-Link.com,2013-02-22 06:36:00,
2013-02-22 01:52:00,14.4,13.9,29.88,WSW,247,0.0,-999.0,98,-99.99,,,0.00,Acu-Link.com,2013-02-22 06:52:00,
2013-02-22 02:07:00,14.7,14.2,29.86,SSW,202,2.2,-999.0,98,-99.99,,,0.00,Acu-Link.com,2013-02-22 07:07:00,
2013-02-22 02:22:00,15.4,14.7,29.87,SSW,202,1.7,-999.0,97,-99.99,,,0.00,Acu-Link.com,2013-02-22 07:22:00,
2013-02-22 02:37:00,16.0,14.8,29.87,SSE,157,2.7,-999.0,95,-99.99,,,0.00,Acu-Link.com,2013-02-22 07:37:00,
2013-02-22 02:53:00,16.3,14.6,29.87,ENE,67,4.2,-999.0,93,-99.99,,,0.00,Acu-Link.com,2013-02-22 07:53:00,
2013-02-22 03:08:00,16.3,14.6,29.84,ENE,67,2.2,-999.0,93,-99.99,,,0.00,Acu-Link.com,2013-02-22 08:08:00,
2013-02-22 03:23:00,16.7,15.0,29.84,NNW,337,1.1,-999.0,93,-99.99,,,0.00,Acu-Link.com,2013-02-22 08:23:00,
2013-02-22 03:38:00,17.1,15.2,29.85,SSW,202,4.7,-999.0,92,-99.99,,,0.00,Acu-Link.com,2013-02-22 08:38:00,
2013-02-22 03:53:00,17.4,15.2,29.85,North,0,0.0,-999.0,91,-99.99,,,0.00,Acu-Link.com,2013-02-22 08:53:00,
2013-02-22 04:20:00,17.4,15.2,29.85,South,180,0.0,-999.0,91,-99.99,,,0.00,Acu-Link.com,2013-02-22 09:20:00,
2013-02-22 04:35:00,17.6,15.4,29.84,ENE,67,0.0,-999.0,91,-99.99,,,0.00,Acu-Link.com,2013-02-22 09:35:00,
2013-02-22 04:50:00,18.1,15.9,29.83,South,180,2.2,-999.0,91,-99.99,,,0.00,Acu-Link.com,2013-02-22 09:50:00,
2013-02-22 05:05:00,18.9,16.2,29.82,ESE,112,1.1,-999.0,89,-99.99,,,0.00,Acu-Link.com,2013-02-22 10:05:00,
2013-02-22 05:20:00,19.6,16.6,29.82,South,180,0.0,-999.0,88,-99.99,,,0.00,Acu-Link.com,2013-02-22 10:20:00,
2013-02-22 05:35:00,20.5,17.3,29.80,SSW,202,0.0,-999.0,87,-99.99,,,0.00,Acu-Link.com,2013-02-22 10:35:00,
2013-02-22 05:51:00,21.0,17.5,29.78,ESE,112,7.3,-999.0,86,-99.99,,,0.00,Acu-Link.com,2013-02-22 10:51:00,
2013-02-22 06:06:00,21.4,17.6,29.78,SSE,157,2.7,-999.0,85,-99.99,,,0.00,Acu-Link.com,2013-02-22 11:06:00,
2013-02-22 06:21:00,21.9,17.8,29.76,ENE,67,2.7,-999.0,84,-99.99,,,0.00,Acu-Link.com,2013-02-22 11:21:00,
2013-02-22 06:37:00,22.5,18.4,29.77,NNE,22,5.3,-999.0,84,-99.99,,,0.00,Acu-Link.com,2013-02-22 11:37:00,
2013-02-22 06:52:00,23.0,18.6,29.76,WNW,292,2.7,-999.0,83,-99.99,,,0.00,Acu-Link.com,2013-02-22 11:52:00,
2013-02-22 07:07:00,23.4,19.0,29.74,SSE,157,3.2,-999.0,83,-99.99,,,0.00,Acu-Link.com,2013-02-22 12:07:00,
2013-02-22 07:22:00,23.9,19.2,29.74,SSE,157,3.7,-999.0,82,-99.99,,,0.00,Acu-Link.com,2013-02-22 12:22:00,
2013-02-22 07:38:00,25.0,19.7,29.74,SSE,157,4.2,-999.0,80,-99.99,,,0.00,Acu-Link.com,2013-02-22 12:38:00,
2013-02-22 07:53:00,25.9,20.0,29.74,SSW,202,6.8,-999.0,78,-99.99,,,0.00,Acu-Link.com,2013-02-22 12:53:00,
2013-02-22 08:11:00,26.6,20.1,29.75,East,90,9.9,-999.0,76,-99.99,,,0.00,Acu-Link.com,2013-02-22 13:11:00,
2013-02-22 08:27:00,26.8,20.6,29.74,SSW,202,6.3,-999.0,77,-99.99,,,0.00,Acu-Link.com,2013-02-22 13:27:00,
2013-02-22 08:42:00,26.8,20.9,29.73,WNW,292,7.3,-999.0,78,-99.99,,,0.00,Acu-Link.com,2013-02-22 13:42:00,
2013-02-22 08:57:00,27.3,20.8,29.72,North,0,3.7,-999.0,76,-99.99,,,0.00,Acu-Link.com,2013-02-22 13:57:00,
2013-02-22 09:38:00,28.2,22.2,29.69,South,180,10.9,-999.0,78,-99.99,,,0.00,Acu-Link.com,2013-02-22 14:38:00,
2013-02-22 09:54:00,28.8,22.5,29.68,South,180,7.8,-999.0,77,-99.99,,,0.00,Acu-Link.com,2013-02-22 14:54:00,
2013-02-22 10:09:00,29.5,23.2,29.68,South,180,1.7,-999.0,77,-99.99,,,0.00,Acu-Link.com,2013-02-22 15:09:00,
2013-02-22 10:24:00,30.0,23.4,29.69,ESE,112,3.7,-999.0,76,-99.99,,,0.00,Acu-Link.com,2013-02-22 15:24:00,
2013-02-22 10:40:00,30.0,24.6,29.68,SSW,202,3.2,-999.0,80,-99.99,,,0.00,Acu-Link.com,2013-02-22 15:40:00,
2013-02-22 10:57:00,29.7,24.9,29.69,South,180,10.4,-999.0,82,-99.99,,,0.00,Acu-Link.com,2013-02-22 15:57:00,
2013-02-22 11:14:00,30.4,25.6,29.69,South,180,5.3,-999.0,82,-99.99,,,0.00,Acu-Link.com,2013-02-22 16:14:00,
2013-02-22 11:30:00,30.2,27.9,29.69,South,180,10.9,-999.0,91,-99.99,,,0.00,Acu-Link.com,2013-02-22 16:30:00,
2013-02-22 11:45:00,29.5,27.5,29.69,West,270,9.9,-999.0,92,-99.99,,,0.00,Acu-Link.com,2013-02-22 16:45:00,
2013-02-22 12:00:00,30.0,28.2,29.69,SW,225,7.3,-999.0,93,-99.99,,,0.00,Acu-Link.com,2013-02-22 17:00:00,
2013-02-22 12:15:00,30.7,28.9,29.70,SW,225,4.7,-999.0,93,-99.99,,,0.00,Acu-Link.com,2013-02-22 17:15:00,
2013-02-22 12:30:00,30.7,28.7,29.69,South,180,5.8,-999.0,92,-99.99,,,0.00,Acu-Link.com,2013-02-22 17:30:00,
2013-02-22 12:48:00,31.1,29.3,29.69,ESE,112,9.4,-999.0,93,-99.99,,,0.00,Acu-Link.com,2013-02-22 17:48:00,
2013-02-22 13:03:00,30.7,29.4,29.69,WSW,247,4.2,-999.0,95,-99.99,,,0.00,Acu-Link.com,2013-02-22 18:03:00,
2013-02-22 13:19:00,31.1,29.8,29.68,SSW,202,10.9,-999.0,95,-99.99,,,0.00,Acu-Link.com,2013-02-22 18:19:00,
2013-02-22 13:34:00,32.7,30.9,29.68,SSW,202,7.3,-999.0,93,-99.99,,,0.00,Acu-Link.com,2013-02-22 18:34:00,
2013-02-22 13:49:00,32.2,30.4,29.68,SW,225,6.8,-999.0,93,-99.99,,,0.00,Acu-Link.com,2013-02-22 18:49:00,
2013-02-22 14:04:00,32.5,30.4,29.67,SSW,202,5.8,-999.0,92,-99.99,,,0.00,Acu-Link.com,2013-02-22 19:04:00,
2013-02-22 14:19:00,32.9,31.1,29.67,SSE,157,5.8,-999.0,93,-99.99,,,0.00,Acu-Link.com,2013-02-22 19:19:00,
2013-02-22 14:34:00,33.6,31.8,29.67,South,180,4.7,-999.0,93,-99.99,,,0.00,Acu-Link.com,2013-02-22 19:34:00,
2013-02-22 14:50:00,33.8,32.0,29.67,ESE,112,6.8,-999.0,93,-99.99,,,0.00,Acu-Link.com,2013-02-22 19:50:00,
2013-02-22 15:10:00,33.6,32.1,29.68,SSE,157,6.3,-999.0,94,-99.99,,,0.00,Acu-Link.com,2013-02-22 20:10:00,
2013-02-22 15:25:00,33.1,32.1,29.69,SW,225,5.8,-999.0,96,-99.99,,,0.00,Acu-Link.com,2013-02-22 20:25:00,
2013-02-22 15:41:00,32.9,32.1,29.69,South,180,4.2,-999.0,97,-99.99,,,0.00,Acu-Link.com,2013-02-22 20:41:00,
2013-02-22 15:56:00,33.1,32.3,29.69,NNW,337,8.3,-999.0,97,-99.99,,,0.00,Acu-Link.com,2013-02-22 20:56:00,
2013-02-22 16:11:00,33.3,32.8,29.70,South,180,2.7,-999.0,98,-99.99,,,0.00,Acu-Link.com,2013-02-22 21:11:00,
2013-02-22 16:26:00,33.3,32.8,29.69,South,180,4.2,-999.0,98,-99.99,,,0.00,Acu-Link.com,2013-02-22 21:26:00,
2013-02-22 16:41:00,33.3,32.8,29.70,SSW,202,6.8,-999.0,98,-99.99,,,0.00,Acu-Link.com,2013-02-22 21:41:00,
2013-02-22 16:56:00,33.6,33.1,29.69,SSW,202,2.7,-999.0,98,-99.99,,,0.00,Acu-Link.com,2013-02-22 21:56:00,
2013-02-22 17:11:00,33.6,33.1,29.69,SSW,202,5.3,-999.0,98,-99.99,,,0.00,Acu-Link.com,2013-02-22 22:11:00,
2013-02-22 17:26:00,33.6,33.1,29.71,South,180,5.8,-999.0,98,-99.99,,,0.00,Acu-Link.com,2013-02-22 22:26:00,
2013-02-22 17:42:00,33.6,33.1,29.72,South,180,4.7,-999.0,98,-99.99,,,0.00,Acu-Link.com,2013-02-22 22:42:00,
2013-02-22 17:57:00,33.4,32.9,29.72,SSW,202,3.7,-999.0,98,-99.99,,,0.00,Acu-Link.com,2013-02-22 22:57:00,
2013-02-22 18:12:00,33.4,32.9,29.73,SSW,202,4.2,-999.0,98,-99.99,,,0.00,Acu-Link.com,2013-02-22 23:12:00,
2013-02-22 18:27:00,34.0,33.5,29.72,South,180,5.8,-999.0,98,-99.99,,,0.00,Acu-Link.com,2013-02-22 23:27:00,
2013-02-22 18:42:00,34.7,34.2,29.72,SSW,202,3.7,-999.0,98,-99.99,,,0.00,Acu-Link.com,2013-02-22 23:42:00,
2013-02-22 18:57:00,34.7,34.2,29.74,South,180,4.2,-999.0,98,-99.99,,,0.00,Acu-Link.com,2013-02-22 23:57:00,
2013-02-22 19:13:00,34.5,34.0,29.73,North,0,5.8,-999.0,98,-99.99,,,0.01,Acu-Link.com,2013-02-23 00:13:00,
2013-02-22 19:28:00,34.3,33.8,29.74,SSW,202,3.7,-999.0,98,-99.99,,,0.01,Acu-Link.com,2013-02-23 00:28:00,
2013-02-22 19:43:00,34.5,34.0,29.75,WNW,292,9.4,-999.0,98,-99.99,,,0.03,Acu-Link.com,2013-02-23 00:43:00,
2013-02-22 19:58:00,34.0,33.5,29.73,SW,225,3.7,-999.0,98,-99.99,,,0.04,Acu-Link.com,2013-02-23 00:58:00,
2013-02-22 20:14:00,34.0,33.5,29.73,SSW,202,2.2,-999.0,98,-99.99,,,0.04,Acu-Link.com,2013-02-23 01:14:00,
2013-02-22 20:29:00,33.8,33.3,29.74,SW,225,5.8,-999.0,98,-99.99,,,0.04,Acu-Link.com,2013-02-23 01:29:00,
2013-02-22 20:44:00,33.8,33.3,29.75,South,180,4.2,-999.0,98,-99.99,,,0.06,Acu-Link.com,2013-02-23 01:44:00,
2013-02-22 20:59:00,34.0,33.5,29.75,SSW,202,4.2,-999.0,98,-99.99,,,0.06,Acu-Link.com,2013-02-23 01:59:00,
2013-02-22 21:15:00,34.2,33.7,29.74,SW,225,5.8,-999.0,98,-99.99,,,0.06,Acu-Link.com,2013-02-23 02:15:00,
2013-02-22 21:30:00,34.2,33.7,29.75,SSW,202,3.7,-999.0,98,-99.99,,,0.07,Acu-Link.com,2013-02-23 02:30:00,
2013-02-22 21:45:00,34.2,33.7,29.75,ESE,112,4.7,-999.0,98,-99.99,,,0.08,Acu-Link.com,2013-02-23 02:45:00,
2013-02-22 22:00:00,34.5,34.0,29.75,SW,225,3.2,-999.0,98,-99.99,,,0.08,Acu-Link.com,2013-02-23 03:00:00,
2013-02-22 22:15:00,34.5,34.0,29.75,WSW,247,4.2,-999.0,98,-99.99,,,0.09,Acu-Link.com,2013-02-23 03:15:00,
2013-02-22 22:30:00,34.5,34.0,29.74,South,180,3.7,-999.0,98,-99.99,,,0.10,Acu-Link.com,2013-02-23 03:30:00,
2013-02-22 22:45:00,34.5,34.0,29.75,NW,315,4.7,-999.0,98,-99.99,,,0.10,Acu-Link.com,2013-02-23 03:45:00,
2013-02-22 23:00:00,34.5,34.0,29.76,West,270,3.7,-999.0,98,-99.99,,,0.10,Acu-Link.com,2013-02-23 04:00:00,
2013-02-22 23:16:00,34.5,34.0,29.76,SSW,202,4.2,-999.0,98,-99.99,,,0.10,Acu-Link.com,2013-02-23 04:16:00,
2013-02-22 23:31:00,34.5,34.0,29.76,SSW,202,2.2,-999.0,98,-99.99,,,0.11,Acu-Link.com,2013-02-23 04:31:00,
2013-02-22 23:46:00,34.3,33.8,29.75,SSE,157,3.7,-999.0,98,-99.99,,,0.11,Acu-Link.com,2013-02-23 04:46:00,